Time,TemperatureF,DewpointF,PressureIn,WindDirection,WindDirectionDegrees,WindSpeedMPH,WindSpeedGustMPH,Humidity,HourlyPrecipIn,Conditions,Clouds,dailyrainin,SolarRadiationWatts/m^2,SoftwareType,DateUTC
2013-06-18 00:01:00,68.3,64.9,29.90,SSE,151,0.0,0.0,89,0.00,,,0.00,0,Wunderground v.1.15,2013-06-18 04:01:00,
2013-06-18 00:02:00,68.3,64.9,29.90,SSE,151,0.0,0.0,89,0.00,,,0.00,0,Wunderground v.1.15,2013-06-18 04:02:00,
2013-06-18 00:05:00,68.3,64.9,29.90,SSE,151,0.0,0.0,89,0.00,,,0.00,0,Wunderground v.1.15,2013-06-18 04:05:00,
2013-06-18 00:11:00,68.3,64.9,29.90,SSE,152,0.0,2.0,89,0.00,,,0.00,0,Wunderground v.1.15,2013-06-18 04:11:00,
2013-06-18 00:17:00,68.4,65.0,29.90,SSE,152,0.0,2.0,89,0.00,,,0.00,0,Wunderground v.1.15,2013-06-18 04:17:00,
2013-06-18 00:22:00,68.4,64.7,29.89,SSE,163,0.0,2.0,88,0.00,,,0.00,0,Wunderground v.1.15,2013-06-18 04:22:00,
2013-06-18 00:28:00,68.5,64.8,29.89,SSE,163,0.0,2.0,88,0.00,,,0.00,0,Wunderground v.1.15,2013-06-18 04:28:00,
2013-06-18 00:33:00,68.6,64.6,29.90,SSE,163,0.0,1.0,87,0.00,,,0.00,0,Wunderground v.1.15,2013-06-18 04:33:00,
2013-06-18 00:39:00,68.6,64.6,29.90,WSW,247,0.0,1.0,87,0.00,,,0.00,0,Wunderground v.1.15,2013-06-18 04:39:00,
2013-06-18 00:44:00,68.8,64.8,29.90,South,171,0.0,1.0,87,0.00,,,0.00,0,Wunderground v.1.15,2013-06-18 04:44:00,
2013-06-18 00:49:00,68.8,64.8,29.89,South,171,0.0,1.0,87,0.00,,,0.00,0,Wunderground v.1.15,2013-06-18 04:49:00,
2013-06-18 00:54:00,68.8,64.4,29.89,South,171,0.0,0.0,86,0.00,,,0.00,0,Wunderground v.1.15,2013-06-18 04:54:00,
2013-06-18 01:00:00,68.8,64.4,29.89,SSE,155,0.0,0.0,86,0.00,,,0.00,0,Wunderground v.1.15,2013-06-18 05:00:00,
2013-06-18 01:05:00,68.8,64.4,29.89,SSE,155,0.0,0.0,86,0.00,,,0.00,0,Wunderground v.1.15,2013-06-18 05:05:00,
2013-06-18 01:11:00,68.7,64.3,29.89,SSE,161,0.0,0.0,86,0.00,,,0.00,0,Wunderground v.1.15,2013-06-18 05:11:00,
2013-06-18 01:16:00,68.7,64.3,29.89,SSE,161,0.0,0.0,86,0.00,,,0.00,0,Wunderground v.1.15,2013-06-18 05:16:00,
2013-06-18 01:22:00,68.6,63.9,29.89,SSE,161,0.0,0.0,85,0.00,,,0.00,0,Wunderground v.1.15,2013-06-18 05:22:00,
2013-06-18 01:28:00,68.6,63.9,29.89,SSE,161,0.0,0.0,85,0.00,,,0.00,0,Wunderground v.1.15,2013-06-18 05:28:00,
2013-06-18 01:33:00,68.5,63.8,29.88,SSE,161,0.0,0.0,85,0.00,,,0.00,0,Wunderground v.1.15,2013-06-18 05:33:00,
2013-06-18 01:39:00,68.5,64.1,29.89,SSE,160,0.0,1.0,86,0.00,,,0.00,0,Wunderground v.1.15,2013-06-18 05:39:00,
2013-06-18 01:44:00,68.4,64.0,29.88,SSE,159,0.0,0.0,86,0.00,,,0.00,0,Wunderground v.1.15,2013-06-18 05:44:00,
2013-06-18 01:50:00,68.4,64.0,29.88,SSE,159,0.0,0.0,86,0.00,,,0.00,0,Wunderground v.1.15,2013-06-18 05:50:00,
2013-06-18 01:56:00,68.4,64.4,29.88,SSE,160,0.0,1.0,87,0.00,,,0.00,0,Wunderground v.1.15,2013-06-18 05:56:00,
2013-06-18 02:01:00,68.4,64.4,29.87,SSE,160,0.0,0.0,87,0.00,,,0.00,0,Wunderground v.1.15,2013-06-18 06:01:00,
2013-06-18 02:06:00,68.3,64.3,29.87,SSE,163,0.0,0.0,87,0.00,,,0.00,0,Wunderground v.1.15,2013-06-18 06:06:00,
2013-06-18 02:11:00,68.3,64.3,29.87,SSE,162,0.0,0.0,87,0.00,,,0.00,0,Wunderground v.1.15,2013-06-18 06:11:00,
2013-06-18 02:17:00,68.3,64.6,29.87,SSE,163,0.0,0.0,88,0.00,,,0.00,0,Wunderground v.1.15,2013-06-18 06:17:00,
2013-06-18 02:23:00,68.2,64.5,29.87,SSE,163,0.0,0.0,88,0.00,,,0.00,0,Wunderground v.1.15,2013-06-18 06:23:00,
2013-06-18 02:28:00,68.2,64.5,29.87,SSE,163,0.0,2.0,88,0.00,,,0.00,0,Wunderground v.1.15,2013-06-18 06:28:00,
2013-06-18 02:34:00,68.2,64.8,29.87,NW,304,0.0,0.0,89,0.00,,,0.00,0,Wunderground v.1.15,2013-06-18 06:34:00,
2013-06-18 02:39:00,68.2,64.8,29.87,WSW,246,1.0,2.0,89,0.00,,,0.00,0,Wunderground v.1.15,2013-06-18 06:39:00,
2013-06-18 02:45:00,68.3,64.9,29.86,WSW,242,1.0,2.0,89,0.00,,,0.00,0,Wunderground v.1.15,2013-06-18 06:45:00,
2013-06-18 02:50:00,68.3,64.6,29.86,WSW,242,0.0,0.0,88,0.00,,,0.00,0,Wunderground v.1.15,2013-06-18 06:50:00,
2013-06-18 02:56:00,68.3,64.9,29.86,WSW,242,0.0,0.0,89,0.00,,,0.00,0,Wunderground v.1.15,2013-06-18 06:56:00,
2013-06-18 03:01:00,68.2,64.8,29.86,WSW,242,0.0,0.0,89,0.00,,,0.00,0,Wunderground v.1.15,2013-06-18 07:01:00,
2013-06-18 03:06:00,68.2,64.8,29.85,WSW,242,0.0,0.0,89,0.00,,,0.00,0,Wunderground v.1.15,2013-06-18 07:06:00,
2013-06-18 03:11:00,68.2,64.8,29.85,WSW,242,0.0,0.0,89,0.00,,,0.00,0,Wunderground v.1.15,2013-06-18 07:11:00,
2013-06-18 03:17:00,68.2,64.8,29.85,WSW,242,0.0,0.0,89,0.00,,,0.00,0,Wunderground v.1.15,2013-06-18 07:17:00,
2013-06-18 03:22:00,68.1,64.7,29.85,WSW,242,0.0,0.0,89,0.00,,,0.00,0,Wunderground v.1.15,2013-06-18 07:22:00,
2013-06-18 03:28:00,67.8,64.4,29.85,WSW,242,0.0,0.0,89,0.00,,,0.00,0,Wunderground v.1.15,2013-06-18 07:28:00,
2013-06-18 03:33:00,67.6,64.2,29.85,WSW,242,0.0,0.0,89,0.00,,,0.00,0,Wunderground v.1.15,2013-06-18 07:33:00,
2013-06-18 03:39:00,67.4,64.4,29.85,WSW,242,0.0,0.0,90,0.00,,,0.00,0,Wunderground v.1.15,2013-06-18 07:39:00,
2013-06-18 03:44:00,67.3,64.3,29.85,WSW,242,0.0,0.0,90,0.00,,,0.00,0,Wunderground v.1.15,2013-06-18 07:44:00,
2013-06-18 03:50:00,67.1,64.1,29.85,WSW,242,0.0,0.0,90,0.00,,,0.00,0,Wunderground v.1.15,2013-06-18 07:50:00,
2013-06-18 03:56:00,67.1,64.1,29.85,WSW,242,0.0,0.0,90,0.00,,,0.00,0,Wunderground v.1.15,2013-06-18 07:56:00,
2013-06-18 04:01:00,67.0,64.0,29.86,WSW,242,0.0,0.0,90,0.00,,,0.00,0,Wunderground v.1.15,2013-06-18 08:01:00,
2013-06-18 04:06:00,66.9,64.2,29.86,WSW,242,0.0,0.0,91,0.00,,,0.00,0,Wunderground v.1.15,2013-06-18 08:06:00,
2013-06-18 04:11:00,66.8,64.1,29.86,WSW,242,0.0,0.0,91,0.00,,,0.00,0,Wunderground v.1.15,2013-06-18 08:11:00,
2013-06-18 04:17:00,66.7,64.0,29.86,WSW,242,0.0,0.0,91,0.00,,,0.00,0,Wunderground v.1.15,2013-06-18 08:17:00,
2013-06-18 04:22:00,66.6,63.9,29.86,WSW,242,0.0,0.0,91,0.00,,,0.00,0,Wunderground v.1.15,2013-06-18 08:22:00,
2013-06-18 04:28:00,66.5,63.8,29.86,WSW,242,0.0,0.0,91,0.00,,,0.00,0,Wunderground v.1.15,2013-06-18 08:28:00,
2013-06-18 04:33:00,66.4,63.7,29.86,WSW,242,0.0,0.0,91,0.00,,,0.00,0,Wunderground v.1.15,2013-06-18 08:33:00,
2013-06-18 04:39:00,66.3,63.6,29.86,WSW,242,0.0,0.0,91,0.00,,,0.00,0,Wunderground v.1.15,2013-06-18 08:39:00,
2013-06-18 04:44:00,66.3,63.6,29.86,WSW,242,0.0,0.0,91,0.00,,,0.00,0,Wunderground v.1.15,2013-06-18 08:44:00,
2013-06-18 04:50:00,66.2,63.5,29.86,WSW,242,0.0,0.0,91,0.00,,,0.00,0,Wunderground v.1.15,2013-06-18 08:50:00,
2013-06-18 04:56:00,66.1,63.4,29.86,WSW,242,0.0,0.0,91,0.00,,,0.00,0,Wunderground v.1.15,2013-06-18 08:56:00,
2013-06-18 05:01:00,66.1,63.4,29.86,WSW,242,0.0,0.0,91,0.00,,,0.00,0,Wunderground v.1.15,2013-06-18 09:01:00,
2013-06-18 05:07:00,66.0,63.3,29.86,WSW,242,0.0,0.0,91,0.00,,,0.00,0,Wunderground v.1.15,2013-06-18 09:07:00,
2013-06-18 05:12:00,65.9,63.2,29.86,WSW,242,0.0,0.0,91,0.00,,,0.00,0,Wunderground v.1.15,2013-06-18 09:12:00,
2013-06-18 05:18:00,65.8,63.4,29.86,WSW,242,0.0,0.0,92,0.00,,,0.00,0,Wunderground v.1.15,2013-06-18 09:18:00,
2013-06-18 05:23:00,65.8,63.4,29.86,WSW,242,0.0,0.0,92,0.00,,,0.00,0,Wunderground v.1.15,2013-06-18 09:23:00,
2013-06-18 05:29:00,65.7,63.3,29.86,WSW,242,0.0,0.0,92,0.00,,,0.00,0,Wunderground v.1.15,2013-06-18 09:29:00,
2013-06-18 05:34:00,65.6,63.2,29.86,WSW,242,0.0,0.0,92,0.00,,,0.00,0,Wunderground v.1.15,2013-06-18 09:34:00,
2013-06-18 05:40:00,65.6,63.2,29.86,WSW,242,0.0,0.0,92,0.00,,,0.00,7,Wunderground v.1.15,2013-06-18 09:40:00,
2013-06-18 05:45:00,65.6,63.2,29.86,WSW,242,0.0,0.0,92,0.00,,,0.00,12,Wunderground v.1.15,2013-06-18 09:45:00,
2013-06-18 05:51:00,65.5,63.1,29.86,WSW,242,0.0,0.0,92,0.00,,,0.00,25,Wunderground v.1.15,2013-06-18 09:51:00,
2013-06-18 05:57:00,65.5,63.1,29.86,WSW,242,0.0,0.0,92,0.00,,,0.00,37,Wunderground v.1.15,2013-06-18 09:57:00,
2013-06-18 06:02:00,65.6,63.5,29.86,WSW,242,0.0,0.0,93,0.00,,,0.00,54,Wunderground v.1.15,2013-06-18 10:02:00,
2013-06-18 06:08:00,65.8,63.7,29.86,WSW,242,0.0,0.0,93,0.00,,,0.00,74,Wunderground v.1.15,2013-06-18 10:08:00,
2013-06-18 06:13:00,66.1,64.0,29.86,WSW,242,0.0,0.0,93,0.00,,,0.00,97,Wunderground v.1.15,2013-06-18 10:13:00,
2013-06-18 06:19:00,66.5,64.4,29.86,WSW,242,0.0,0.0,93,0.00,,,0.00,118,Wunderground v.1.15,2013-06-18 10:19:00,
2013-06-18 06:24:00,67.1,64.7,29.86,WSW,242,0.0,0.0,92,0.00,,,0.00,142,Wunderground v.1.15,2013-06-18 10:24:00,
2013-06-18 06:31:00,67.5,64.8,29.86,WSW,242,0.0,0.0,91,0.00,,,0.00,146,Wunderground v.1.15,2013-06-18 10:31:00,
2013-06-18 06:36:00,67.9,65.2,29.86,WSW,242,0.0,0.0,91,0.00,,,0.00,153,Wunderground v.1.15,2013-06-18 10:36:00,
2013-06-18 06:42:00,68.2,65.2,29.87,WSW,242,0.0,0.0,90,0.00,,,0.00,100,Wunderground v.1.15,2013-06-18 10:42:00,
2013-06-18 06:48:00,68.6,65.5,29.87,West,262,0.0,0.0,90,0.00,,,0.00,98,Wunderground v.1.15,2013-06-18 10:48:00,
2013-06-18 06:53:00,68.8,65.7,29.87,West,262,0.0,0.0,90,0.00,,,0.00,100,Wunderground v.1.15,2013-06-18 10:53:00,
2013-06-18 06:59:00,68.7,65.3,29.87,West,262,0.0,0.0,89,0.00,,,0.00,97,Wunderground v.1.15,2013-06-18 10:59:00,
2013-06-18 07:04:00,68.8,65.7,29.87,NE,55,0.0,0.0,90,0.00,,,0.00,107,Wunderground v.1.15,2013-06-18 11:04:00,
2013-06-18 07:10:00,69.0,65.9,29.87,NE,55,0.0,0.0,90,0.00,,,0.00,109,Wunderground v.1.15,2013-06-18 11:10:00,
2013-06-18 07:15:00,69.2,65.8,29.87,NE,55,0.0,0.0,89,0.00,,,0.00,125,Wunderground v.1.15,2013-06-18 11:15:00,
2013-06-18 07:21:00,69.5,66.4,29.87,NE,55,0.0,0.0,90,0.00,,,0.00,141,Wunderground v.1.15,2013-06-18 11:21:00,
2013-06-18 07:26:00,69.6,66.5,29.87,NE,55,0.0,0.0,90,0.00,,,0.00,148,Wunderground v.1.15,2013-06-18 11:26:00,
2013-06-18 07:32:00,69.7,66.6,29.87,NE,55,0.0,0.0,90,0.00,,,0.00,135,Wunderground v.1.15,2013-06-18 11:32:00,
2013-06-18 07:37:00,69.9,66.8,29.87,NE,55,0.0,0.0,90,0.00,,,0.00,146,Wunderground v.1.15,2013-06-18 11:37:00,
2013-06-18 07:43:00,70.3,66.9,29.87,NE,55,0.0,0.0,89,0.00,,,0.00,192,Wunderground v.1.15,2013-06-18 11:43:00,
2013-06-18 07:49:00,70.4,67.0,29.88,NE,55,0.0,0.0,89,0.00,,,0.00,181,Wunderground v.1.15,2013-06-18 11:49:00,
2013-06-18 07:54:00,70.5,66.8,29.87,SSE,160,0.0,1.0,88,0.00,,,0.00,199,Wunderground v.1.15,2013-06-18 11:54:00,
2013-06-18 12:51:00,75.4,70.2,29.85,East,90,0.0,0.0,84,0.00,,,0.00,0,Wunderground v.1.15,2013-06-18 16:51:00,
2013-06-18 12:57:00,74.3,69.1,29.87,SW,230,1.0,6.0,84,1.72,,,0.11,0,Wunderground v.1.15,2013-06-18 16:57:00,
2013-06-18 13:02:00,71.3,64.8,29.87,WNW,287,4.0,9.0,80,1.82,,,0.29,9,Wunderground v.1.15,2013-06-18 17:02:00,
2013-06-18 13:08:00,65.8,60.5,29.86,North,11,9.0,25.0,83,2.67,,,0.47,49,Wunderground v.1.15,2013-06-18 17:08:00,
2013-06-18 13:14:00,64.1,60.2,29.88,WNW,299,8.0,9.0,87,0.78,,,0.57,53,Wunderground v.1.15,2013-06-18 17:14:00,
2013-06-18 13:19:00,63.6,60.3,29.88,West,275,4.0,9.0,89,0.26,,,0.60,63,Wunderground v.1.15,2013-06-18 17:19:00,
2013-06-18 13:24:00,63.5,60.5,29.85,East,82,2.0,5.0,90,0.14,,,0.61,83,Wunderground v.1.15,2013-06-18 17:24:00,
2013-06-18 13:30:00,63.5,60.8,29.85,ENE,58,2.0,2.0,91,0.06,,,0.61,77,Wunderground v.1.15,2013-06-18 17:30:00,
2013-06-18 13:36:00,63.6,60.9,29.85,ENE,58,1.0,2.0,91,0.04,,,0.62,65,Wunderground v.1.15,2013-06-18 17:36:00,
2013-06-18 13:41:00,63.8,61.4,29.85,ENE,58,0.0,0.0,92,0.17,,,0.63,74,Wunderground v.1.15,2013-06-18 17:41:00,
2013-06-18 13:47:00,64.1,61.7,29.85,ENE,58,0.0,0.0,92,0.07,,,0.63,90,Wunderground v.1.15,2013-06-18 17:47:00,
2013-06-18 13:53:00,64.3,62.2,29.85,ENE,57,0.0,0.0,93,0.04,,,0.63,77,Wunderground v.1.15,2013-06-18 17:53:00,
2013-06-18 13:58:00,64.5,62.4,29.84,ENE,57,0.0,0.0,93,0.00,,,0.63,84,Wunderground v.1.15,2013-06-18 17:58:00,
2013-06-18 14:04:00,64.8,62.7,29.83,ENE,57,0.0,0.0,93,0.00,,,0.63,114,Wunderground v.1.15,2013-06-18 18:04:00,
2013-06-18 14:09:00,65.0,62.9,29.83,ENE,57,0.0,0.0,93,0.00,,,0.63,107,Wunderground v.1.15,2013-06-18 18:09:00,
2013-06-18 14:15:00,65.2,63.1,29.83,ENE,57,0.0,1.0,93,0.00,,,0.64,125,Wunderground v.1.15,2013-06-18 18:15:00,
2013-06-18 14:20:00,65.2,63.1,29.83,NE,56,0.0,0.0,93,0.00,,,0.64,137,Wunderground v.1.15,2013-06-18 18:20:00,
2013-06-18 14:26:00,65.1,63.0,29.84,NW,312,1.0,2.0,93,0.04,,,0.65,149,Wunderground v.1.15,2013-06-18 18:26:00,
2013-06-18 14:31:00,65.2,63.1,29.84,NW,312,1.0,1.0,93,0.04,,,0.65,139,Wunderground v.1.15,2013-06-18 18:31:00,
2013-06-18 14:37:00,65.4,63.3,29.83,NW,312,0.0,1.0,93,0.04,,,0.65,114,Wunderground v.1.15,2013-06-18 18:37:00,
2013-06-18 14:43:00,65.4,63.3,29.83,NW,311,0.0,1.0,93,0.00,,,0.65,98,Wunderground v.1.15,2013-06-18 18:43:00,
2013-06-18 14:48:00,65.5,63.4,29.82,NW,311,1.0,1.0,93,0.00,,,0.65,100,Wunderground v.1.15,2013-06-18 18:48:00,
2013-06-18 14:53:00,65.6,63.5,29.82,NW,311,0.0,0.0,93,0.00,,,0.65,113,Wunderground v.1.15,2013-06-18 18:53:00,
2013-06-18 14:59:00,65.9,63.8,29.82,NW,311,0.0,0.0,93,0.00,,,0.66,118,Wunderground v.1.15,2013-06-18 18:59:00,
2013-06-18 15:05:00,66.2,64.1,29.82,NW,311,0.0,0.0,93,0.00,,,0.66,104,Wunderground v.1.15,2013-06-18 19:05:00,
2013-06-18 15:11:00,66.5,64.4,29.83,NW,311,0.0,0.0,93,0.00,,,0.66,93,Wunderground v.1.15,2013-06-18 19:11:00,
2013-06-18 15:17:00,66.7,64.6,29.83,WNW,303,0.0,1.0,93,0.00,,,0.66,90,Wunderground v.1.15,2013-06-18 19:17:00,
2013-06-18 15:23:00,66.7,64.6,29.82,South,176,1.0,3.0,93,0.00,,,0.66,98,Wunderground v.1.15,2013-06-18 19:23:00,
2013-06-18 15:28:00,66.8,64.7,29.82,SE,142,2.0,5.0,93,0.00,,,0.67,109,Wunderground v.1.15,2013-06-18 19:28:00,
2013-06-18 15:34:00,66.8,64.7,29.81,SSE,151,3.0,6.0,93,0.00,,,0.67,123,Wunderground v.1.15,2013-06-18 19:34:00,
2013-06-18 15:39:00,66.6,64.5,29.81,South,172,3.0,7.0,93,0.00,,,0.67,118,Wunderground v.1.15,2013-06-18 19:39:00,
2013-06-18 15:45:00,66.5,64.4,29.81,SSE,159,4.0,8.0,93,0.00,,,0.67,107,Wunderground v.1.15,2013-06-18 19:45:00,
2013-06-18 15:51:00,66.4,64.3,29.81,South,170,4.0,5.0,93,0.00,,,0.67,98,Wunderground v.1.15,2013-06-18 19:51:00,
2013-06-18 15:56:00,66.4,64.3,29.80,South,187,4.0,8.0,93,0.00,,,0.67,81,Wunderground v.1.15,2013-06-18 19:56:00,
2013-06-18 16:02:00,66.4,64.3,29.80,SE,144,4.0,5.0,93,0.00,,,0.67,76,Wunderground v.1.15,2013-06-18 20:02:00,
2013-06-18 16:07:00,66.5,64.4,29.81,SSW,195,3.0,6.0,93,0.00,,,0.67,26,Wunderground v.1.15,2013-06-18 20:07:00,
2013-06-18 16:13:00,66.6,64.5,29.81,SSW,205,2.0,2.0,93,0.00,,,0.67,70,Wunderground v.1.15,2013-06-18 20:13:00,
2013-06-18 16:18:00,66.6,64.5,29.82,SW,222,1.0,3.0,93,0.00,,,0.67,65,Wunderground v.1.15,2013-06-18 20:18:00,
2013-06-18 16:24:00,66.7,64.6,29.81,SW,222,1.0,1.0,93,0.00,,,0.67,63,Wunderground v.1.15,2013-06-18 20:24:00,
2013-06-18 16:29:00,66.8,64.7,29.82,SW,222,0.0,2.0,93,0.00,,,0.67,53,Wunderground v.1.15,2013-06-18 20:29:00,
2013-06-18 16:35:00,66.8,64.7,29.83,SW,222,0.0,1.0,93,0.00,,,0.67,39,Wunderground v.1.15,2013-06-18 20:35:00,
2013-06-18 16:41:00,66.7,64.6,29.84,SW,223,1.0,1.0,93,0.00,,,0.68,33,Wunderground v.1.15,2013-06-18 20:41:00,
2013-06-18 16:47:00,66.7,64.6,29.83,SW,223,0.0,1.0,93,0.00,,,0.68,54,Wunderground v.1.15,2013-06-18 20:47:00,
2013-06-18 16:53:00,66.8,65.0,29.83,SW,223,0.0,1.0,94,0.05,,,0.69,47,Wunderground v.1.15,2013-06-18 20:53:00,
2013-06-18 16:58:00,66.9,64.8,29.83,SW,223,0.0,1.0,93,0.05,,,0.69,51,Wunderground v.1.15,2013-06-18 20:58:00,
2013-06-18 17:04:00,66.8,64.7,29.83,SW,223,0.0,1.0,93,0.04,,,0.69,47,Wunderground v.1.15,2013-06-18 21:04:00,
2013-06-18 17:10:00,66.7,64.6,29.83,SW,222,1.0,1.0,93,0.04,,,0.70,47,Wunderground v.1.15,2013-06-18 21:10:00,
2013-06-18 17:15:00,66.6,64.5,29.83,SW,222,0.0,1.0,93,0.04,,,0.70,53,Wunderground v.1.15,2013-06-18 21:15:00,
2013-06-18 17:21:00,66.6,64.5,29.83,SW,222,0.0,0.0,93,0.04,,,0.71,53,Wunderground v.1.15,2013-06-18 21:21:00,
2013-06-18 17:26:00,66.7,64.9,29.83,SW,222,0.0,0.0,94,0.04,,,0.71,51,Wunderground v.1.15,2013-06-18 21:26:00,
2013-06-18 17:32:00,66.8,65.0,29.82,SW,222,0.0,0.0,94,0.04,,,0.71,54,Wunderground v.1.15,2013-06-18 21:32:00,
2013-06-18 17:37:00,66.8,65.0,29.82,SW,222,0.0,0.0,94,0.00,,,0.71,58,Wunderground v.1.15,2013-06-18 21:37:00,
2013-06-18 17:43:00,66.8,65.0,29.81,SW,222,0.0,0.0,94,0.00,,,0.71,72,Wunderground v.1.15,2013-06-18 21:43:00,
2013-06-18 17:48:00,67.0,65.2,29.81,SW,222,0.0,0.0,94,0.00,,,0.71,69,Wunderground v.1.15,2013-06-18 21:48:00,
2013-06-18 17:54:00,67.0,65.2,29.81,SW,222,0.0,1.0,94,0.00,,,0.71,62,Wunderground v.1.15,2013-06-18 21:54:00,
2013-06-18 17:59:00,67.1,65.3,29.81,SW,222,0.0,1.0,94,0.00,,,0.71,49,Wunderground v.1.15,2013-06-18 21:59:00,
2013-06-18 18:05:00,67.1,65.3,29.81,SW,222,0.0,0.0,94,0.00,,,0.71,47,Wunderground v.1.15,2013-06-18 22:05:00,
2013-06-18 18:11:00,67.0,65.2,29.81,SW,222,0.0,0.0,94,0.00,,,0.71,44,Wunderground v.1.15,2013-06-18 22:11:00,
2013-06-18 18:16:00,66.9,65.1,29.81,SW,222,0.0,0.0,94,0.00,,,0.72,46,Wunderground v.1.15,2013-06-18 22:16:00,
2013-06-18 18:22:00,66.8,65.0,29.81,SW,222,0.0,0.0,94,0.00,,,0.72,54,Wunderground v.1.15,2013-06-18 22:22:00,
2013-06-18 18:27:00,66.7,64.9,29.81,SW,222,0.0,0.0,94,0.00,,,0.72,47,Wunderground v.1.15,2013-06-18 22:27:00,
2013-06-18 18:33:00,66.8,65.0,29.80,SW,222,0.0,0.0,94,0.04,,,0.73,33,Wunderground v.1.15,2013-06-18 22:33:00,
2013-06-18 18:38:00,66.9,65.1,29.81,SW,222,0.0,0.0,94,0.04,,,0.73,32,Wunderground v.1.15,2013-06-18 22:38:00,
2013-06-18 18:44:00,66.9,65.1,29.81,SW,222,0.0,0.0,94,0.04,,,0.73,32,Wunderground v.1.15,2013-06-18 22:44:00,
2013-06-18 18:50:00,66.8,65.0,29.81,SW,222,0.0,0.0,94,0.00,,,0.73,25,Wunderground v.1.15,2013-06-18 22:50:00,
2013-06-18 18:55:00,66.8,65.0,29.81,SW,219,0.0,2.0,94,0.00,,,0.73,23,Wunderground v.1.15,2013-06-18 22:55:00,
2013-06-18 19:00:00,66.7,64.9,29.81,SW,219,0.0,2.0,94,0.00,,,0.74,25,Wunderground v.1.15,2013-06-18 23:00:00,
2013-06-18 19:06:00,66.7,64.9,29.81,SSE,166,1.0,2.0,94,0.00,,,0.74,19,Wunderground v.1.15,2013-06-18 23:06:00,
2013-06-18 19:12:00,66.7,64.9,29.81,SSE,166,0.0,1.0,94,0.00,,,0.74,18,Wunderground v.1.15,2013-06-18 23:12:00,
2013-06-18 19:17:00,66.7,64.9,29.81,SSE,164,1.0,2.0,94,0.00,,,0.74,16,Wunderground v.1.15,2013-06-18 23:17:00,
2013-06-18 19:23:00,66.7,64.9,29.81,SE,137,2.0,5.0,94,0.00,,,0.74,12,Wunderground v.1.15,2013-06-18 23:23:00,
2013-06-18 19:28:00,66.8,65.0,29.82,East,82,2.0,5.0,94,0.00,,,0.75,16,Wunderground v.1.15,2013-06-18 23:28:00,
2013-06-18 19:34:00,66.8,65.0,29.82,ENE,78,2.0,4.0,94,0.00,,,0.75,12,Wunderground v.1.15,2013-06-18 23:34:00,
2013-06-18 19:39:00,66.8,65.0,29.82,ENE,64,2.0,4.0,94,0.00,,,0.75,7,Wunderground v.1.15,2013-06-18 23:39:00,
2013-06-18 19:45:00,66.9,65.1,29.82,NE,36,3.0,8.0,94,0.00,,,0.75,0,Wunderground v.1.15,2013-06-18 23:45:00,
2013-06-18 19:50:00,66.9,65.4,29.82,NE,36,4.0,6.0,95,0.00,,,0.75,0,Wunderground v.1.15,2013-06-18 23:50:00,
2013-06-18 19:56:00,66.9,65.4,29.82,NE,36,4.0,6.0,95,0.00,,,0.75,0,Wunderground v.1.15,2013-06-18 23:56:00,
2013-06-18 20:02:00,66.9,65.4,29.82,NE,36,2.0,3.0,95,0.00,,,0.76,0,Wunderground v.1.15,2013-06-19 00:02:00,
2013-06-18 20:07:00,66.9,65.4,29.82,ENE,66,1.0,4.0,95,0.00,,,0.76,0,Wunderground v.1.15,2013-06-19 00:07:00,
2013-06-18 20:13:00,66.8,65.3,29.82,ENE,67,2.0,3.0,95,0.00,,,0.76,0,Wunderground v.1.15,2013-06-19 00:13:00,
2013-06-18 20:18:00,66.8,65.3,29.82,NE,42,2.0,5.0,95,0.00,,,0.76,0,Wunderground v.1.15,2013-06-19 00:18:00,
2013-06-18 20:24:00,66.8,65.3,29.83,NE,42,2.0,3.0,95,0.00,,,0.76,0,Wunderground v.1.15,2013-06-19 00:24:00,
2013-06-18 20:30:00,66.9,65.4,29.83,North,11,0.0,0.0,95,0.00,,,0.76,0,Wunderground v.1.15,2013-06-19 00:30:00,
2013-06-18 20:36:00,66.8,65.3,29.83,NNE,12,0.0,2.0,95,0.00,,,0.76,0,Wunderground v.1.15,2013-06-19 00:36:00,
2013-06-18 20:42:00,66.8,65.3,29.83,NNE,12,0.0,0.0,95,0.00,,,0.76,0,Wunderground v.1.15,2013-06-19 00:42:00,
2013-06-18 20:47:00,66.7,65.2,29.82,NNE,12,0.0,0.0,95,0.00,,,0.76,0,Wunderground v.1.15,2013-06-19 00:47:00,
2013-06-18 20:53:00,66.7,65.2,29.83,NNE,12,0.0,0.0,95,0.00,,,0.76,0,Wunderground v.1.15,2013-06-19 00:53:00,
2013-06-18 20:58:00,66.6,65.1,29.83,NNE,12,0.0,0.0,95,0.00,,,0.76,0,Wunderground v.1.15,2013-06-19 00:58:00,
2013-06-18 21:04:00,66.3,64.5,29.83,NNE,12,0.0,2.0,94,0.00,,,0.76,0,Wunderground v.1.15,2013-06-19 01:04:00,
2013-06-18 21:09:00,66.2,64.7,29.83,NNE,12,0.0,2.0,95,0.00,,,0.76,0,Wunderground v.1.15,2013-06-19 01:09:00,
2013-06-18 21:15:00,66.2,64.7,29.83,NNE,12,0.0,0.0,95,0.00,,,0.76,0,Wunderground v.1.15,2013-06-19 01:15:00,
2013-06-18 21:20:00,66.2,64.7,29.83,NNE,12,1.0,1.0,95,0.00,,,0.76,0,Wunderground v.1.15,2013-06-19 01:20:00,
2013-06-18 21:26:00,66.1,64.6,29.84,NNE,12,1.0,1.0,95,0.00,,,0.76,0,Wunderground v.1.15,2013-06-19 01:26:00,
2013-06-18 21:32:00,66.0,64.2,29.84,NNE,12,0.0,1.0,94,0.00,,,0.76,0,Wunderground v.1.15,2013-06-19 01:32:00,
2013-06-18 21:37:00,65.9,64.4,29.85,NNE,12,0.0,1.0,95,0.00,,,0.76,0,Wunderground v.1.15,2013-06-19 01:37:00,
2013-06-18 21:43:00,65.9,64.4,29.85,NNE,12,0.0,0.0,95,0.00,,,0.76,0,Wunderground v.1.15,2013-06-19 01:43:00,
2013-06-18 21:48:00,65.9,64.4,29.84,NNE,12,0.0,0.0,95,0.00,,,0.76,0,Wunderground v.1.15,2013-06-19 01:48:00,
2013-06-18 21:54:00,65.8,64.3,29.84,NNE,12,0.0,0.0,95,0.00,,,0.76,0,Wunderground v.1.15,2013-06-19 01:54:00,
2013-06-18 21:59:00,65.8,64.3,29.84,NNE,12,0.0,0.0,95,0.00,,,0.76,0,Wunderground v.1.15,2013-06-19 01:59:00,
2013-06-18 22:05:00,65.8,64.3,29.85,NNE,12,0.0,0.0,95,0.00,,,0.76,0,Wunderground v.1.15,2013-06-19 02:05:00,
2013-06-18 22:10:00,65.8,64.3,29.85,NNE,12,0.0,0.0,95,0.00,,,0.76,0,Wunderground v.1.15,2013-06-19 02:10:00,
2013-06-18 22:16:00,65.9,64.4,29.85,NNE,12,0.0,0.0,95,0.00,,,0.76,0,Wunderground v.1.15,2013-06-19 02:16:00,
2013-06-18 22:22:00,66.1,64.6,29.85,NNE,12,0.0,0.0,95,0.00,,,0.76,0,Wunderground v.1.15,2013-06-19 02:22:00,
2013-06-18 22:28:00,66.3,64.8,29.86,NNE,12,0.0,0.0,95,0.00,,,0.76,0,Wunderground v.1.15,2013-06-19 02:28:00,
2013-06-18 22:34:00,66.4,64.9,29.85,NNE,12,0.0,0.0,95,0.00,,,0.76,0,Wunderground v.1.15,2013-06-19 02:34:00,
2013-06-18 22:39:00,66.5,65.0,29.85,NNE,12,0.0,0.0,95,0.00,,,0.76,0,Wunderground v.1.15,2013-06-19 02:39:00,
2013-06-18 22:45:00,66.4,64.9,29.85,NNE,12,0.0,2.0,95,0.00,,,0.76,0,Wunderground v.1.15,2013-06-19 02:45:00,